createdAt,value
2023-05-22T00:00:54.883Z,76.46
2023-05-22T00:01:54.826Z,77.33
2023-05-22T00:02:54.909Z,77.23
2023-05-22T00:03:54.683Z,78.09
2023-05-22T00:04:54.674Z,77.13
2023-05-22T00:05:54.488Z,77.80
2023-05-22T00:06:54.407Z,76.27
2023-05-22T00:07:54.327Z,75.70
2023-05-22T00:08:54.271Z,74.26
2023-05-22T00:09:54.175Z,75.12
2023-05-22T00:10:54.087Z,74.93
2023-05-22T00:11:54.018Z,76.37
2023-05-22T00:12:53.946Z,75.02
2023-05-22T00:13:53.860Z,74.06
2023-05-22T00:14:53.807Z,74.16
2023-05-22T00:15:53.734Z,73.68
2023-05-22T00:16:53.688Z,73.58
2023-05-22T00:17:53.779Z,72.53
2023-05-22T00:18:53.499Z,73.30
2023-05-22T00:19:53.405Z,72.53
2023-05-22T00:20:53.326Z,71.95
2023-05-22T00:21:53.247Z,72.24
2023-05-22T00:22:53.174Z,72.49
2023-05-22T00:23:53.093Z,72.68
2023-05-22T00:24:53.011Z,72.30
2023-05-22T00:25:52.946Z,73.35
2023-05-22T00:26:52.858Z,73.16
2023-05-22T00:27:52.788Z,72.49
2023-05-22T00:28:52.705Z,74.02
2023-05-22T00:29:52.658Z,71.34
2023-05-22T00:30:52.549Z,73.07
2023-05-22T00:31:52.477Z,74.89
2023-05-22T00:32:52.472Z,73.74
2023-05-22T00:33:52.341Z,73.45
2023-05-22T00:34:52.252Z,74.12
2023-05-22T00:35:52.174Z,72.88
2023-05-22T00:36:52.085Z,72.20
2023-05-22T00:37:52.035Z,72.68
2023-05-22T00:38:51.936Z,71.82
2023-05-22T00:39:51.856Z,70.57
2023-05-22T00:40:51.783Z,72.68
2023-05-22T00:41:51.725Z,72.68
2023-05-22T00:42:51.625Z,70.96
2023-05-22T00:43:51.547Z,71.44
2023-05-22T00:44:51.472Z,71.53
2023-05-22T00:45:51.394Z,71.53
2023-05-22T00:46:51.347Z,71.44
2023-05-22T00:47:51.302Z,70.76
2023-05-22T00:48:51.159Z,72.30
2023-05-22T00:49:51.080Z,73.16
2023-05-22T00:50:51.009Z,74.69
2023-05-22T00:51:50.943Z,75.37
2023-05-22T00:52:50.853Z,74.22
2023-05-22T00:53:50.778Z,74.89
2023-05-22T00:54:50.702Z,75.75
2023-05-22T00:55:50.629Z,74.12
2023-05-22T00:56:50.538Z,75.65
2023-05-22T00:57:50.466Z,75.56
2023-05-22T00:58:50.399Z,74.69
2023-05-22T00:59:50.305Z,76.42
2023-05-22T01:00:50.264Z,76.32
2023-05-22T01:01:50.210Z,77.00
2023-05-22T01:02:50.199Z,78.15
2023-05-22T01:03:50.098Z,76.62
2023-05-22T01:04:49.925Z,75.95
2023-05-22T01:05:49.843Z,75.37
2023-05-22T01:06:49.759Z,75.65
2023-05-22T01:07:49.683Z,77.09
2023-05-22T01:08:49.605Z,77.19
2023-05-22T01:09:49.549Z,76.52
2023-05-22T01:10:49.456Z,75.52
2023-05-22T01:11:49.376Z,74.37
2023-05-22T01:12:49.320Z,73.32
2023-05-22T01:13:49.223Z,73.61
2023-05-22T01:14:49.204Z,74.18
2023-05-22T01:15:49.147Z,74.57
2023-05-22T01:16:49.044Z,73.51
2023-05-22T01:17:48.930Z,74.27
2023-05-22T01:18:48.856Z,73.22
2023-05-22T01:19:48.752Z,73.51
2023-05-22T01:20:48.898Z,73.61
2023-05-22T01:21:48.605Z,73.61
2023-05-22T01:22:48.523Z,74.18
2023-05-22T01:23:48.448Z,74.95
2023-05-22T01:24:48.376Z,74.27
2023-05-22T01:25:48.303Z,73.70
2023-05-22T01:26:48.212Z,73.70
2023-05-22T01:27:48.138Z,73.41
2023-05-22T01:28:48.067Z,74.27
2023-05-22T01:29:48.001Z,73.80
2023-05-22T01:30:47.898Z,74.08
2023-05-22T01:31:47.844Z,74.47
2023-05-22T01:32:47.836Z,73.61
2023-05-22T01:33:47.830Z,74.27
2023-05-22T01:34:47.592Z,73.32
2023-05-22T01:35:47.512Z,72.27
2023-05-22T01:36:47.429Z,71.69
2023-05-22T01:37:47.362Z,71.59
2023-05-22T01:38:47.302Z,70.83
2023-05-22T01:39:47.205Z,70.92
2023-05-22T01:40:47.133Z,70.64
2023-05-22T01:41:47.049Z,70.41
2023-05-22T01:42:46.963Z,71.50
2023-05-22T01:43:46.901Z,71.59
2023-05-22T01:44:46.820Z,70.89
2023-05-22T01:45:46.794Z,72.45
2023-05-22T01:46:46.659Z,69.93
2023-05-22T01:47:46.591Z,70.54
2023-05-22T01:48:46.504Z,70.54
2023-05-22T01:49:46.431Z,72.55
2023-05-22T01:50:46.348Z,72.52
2023-05-22T01:51:46.278Z,72.32
2023-05-22T01:52:46.200Z,71.69
2023-05-22T01:53:46.116Z,71.88
2023-05-22T01:54:46.040Z,70.73
2023-05-22T01:55:45.986Z,71.40
2023-05-22T01:56:45.891Z,72.13
2023-05-22T01:57:45.800Z,70.70
2023-05-22T01:58:45.741Z,70.12
2023-05-22T01:59:45.661Z,70.31
2023-05-22T02:00:45.642Z,70.03
2023-05-22T02:01:45.593Z,69.64
2023-05-22T02:02:45.541Z,68.68
2023-05-22T02:03:45.431Z,70.12
2023-05-22T02:04:45.263Z,70.70
2023-05-22T02:05:45.193Z,68.68
2023-05-22T02:06:45.109Z,68.78
2023-05-22T02:07:45.054Z,69.07
2023-05-22T02:08:44.954Z,70.12
2023-05-22T02:09:44.874Z,69.74
2023-05-22T02:10:44.800Z,69.83
2023-05-22T02:11:44.715Z,69.64
2023-05-22T02:12:44.641Z,69.54
2023-05-22T02:13:44.557Z,68.21
2023-05-22T02:14:44.481Z,68.21
2023-05-22T02:15:44.415Z,68.40
2023-05-22T02:16:44.325Z,67.15
2023-05-22T02:17:44.313Z,67.15
2023-05-22T02:18:44.202Z,67.54
2023-05-22T02:19:44.089Z,66.77
2023-05-22T02:20:44.017Z,67.44
2023-05-22T02:21:43.941Z,67.54
2023-05-22T02:22:43.853Z,67.60
2023-05-22T02:23:43.777Z,67.91
2023-05-22T02:24:43.706Z,67.54
2023-05-22T02:25:43.639Z,66.67
2023-05-22T02:26:43.544Z,65.97
2023-05-22T02:27:43.467Z,65.11
2023-05-22T02:28:43.385Z,64.43
2023-05-22T02:29:43.319Z,64.43
2023-05-22T02:30:43.231Z,64.53
2023-05-22T02:31:43.394Z,63.86
2023-05-22T02:32:43.084Z,63.57
2023-05-22T02:33:42.993Z,64.53
2023-05-22T02:34:42.910Z,63.48
2023-05-22T02:35:42.841Z,63.57
2023-05-22T02:36:42.756Z,64.82
2023-05-22T02:37:42.680Z,64.53
2023-05-22T02:38:42.612Z,64.53
2023-05-22T02:39:42.530Z,65.11
2023-05-22T02:40:42.581Z,65.58
2023-05-22T02:41:42.663Z,64.82
2023-05-22T02:42:42.301Z,64.82
2023-05-22T02:43:42.217Z,63.39
2023-05-22T02:44:42.136Z,64.25
2023-05-22T02:45:42.055Z,64.25
2023-05-22T02:46:42.051Z,63.57
2023-05-22T02:47:41.940Z,63.86
2023-05-22T02:48:41.819Z,64.15
2023-05-22T02:49:41.741Z,62.90
2023-05-22T02:50:41.706Z,62.71
2023-05-22T02:51:41.593Z,62.90
2023-05-22T02:52:41.505Z,62.04
2023-05-22T02:53:41.444Z,61.85
2023-05-22T02:54:41.350Z,63.00
2023-05-22T02:55:41.267Z,62.33
2023-05-22T02:56:41.195Z,62.90
2023-05-22T02:57:41.114Z,65.01
2023-05-22T02:58:41.032Z,63.96
2023-05-22T02:59:40.958Z,63.76
2023-05-22T03:00:41.089Z,63.86
2023-05-22T03:01:40.866Z,64.53
2023-05-22T03:02:41.317Z,63.57
2023-05-22T03:03:40.689Z,64.05
2023-05-22T03:04:40.574Z,63.39
2023-05-22T03:05:40.493Z,63.10
2023-05-22T03:06:40.408Z,62.52
2023-05-22T03:07:40.337Z,62.62
2023-05-22T03:08:40.258Z,62.90
2023-05-22T03:09:40.185Z,63.19
2023-05-22T03:10:40.317Z,64.15
2023-05-22T03:11:40.017Z,64.25
2023-05-22T03:12:39.936Z,63.67
2023-05-22T03:13:39.863Z,63.29
2023-05-22T03:14:39.788Z,62.04
2023-05-22T03:15:39.700Z,60.70
2023-05-22T03:16:39.719Z,60.22
2023-05-22T03:17:39.592Z,60.22
2023-05-22T03:18:39.472Z,60.61
2023-05-22T03:19:39.391Z,60.89
2023-05-22T03:20:39.506Z,60.70
2023-05-22T03:21:39.231Z,61.57
2023-05-22T03:22:39.157Z,62.04
2023-05-22T03:23:39.095Z,61.94
2023-05-22T03:24:39.012Z,61.76
2023-05-22T03:25:38.924Z,62.14
2023-05-22T03:26:38.861Z,62.81
2023-05-22T03:27:38.767Z,62.62
2023-05-22T03:28:38.693Z,60.80
2023-05-22T03:29:38.613Z,60.32
2023-05-22T03:30:38.647Z,58.59
2023-05-22T03:31:38.468Z,58.09
2023-05-22T03:32:38.402Z,58.50
2023-05-22T03:33:38.378Z,57.99
2023-05-22T03:34:38.232Z,57.51
2023-05-22T03:35:38.149Z,57.99
2023-05-22T03:36:38.069Z,59.81
2023-05-22T03:37:37.998Z,59.91
2023-05-22T03:38:37.905Z,57.99
2023-05-22T03:39:37.824Z,58.86
2023-05-22T03:40:38.000Z,58.56
2023-05-22T03:41:37.671Z,58.56
2023-05-22T03:42:37.598Z,59.05
2023-05-22T03:43:37.514Z,59.52
2023-05-22T03:44:37.435Z,59.05
2023-05-22T03:45:37.404Z,57.23
2023-05-22T03:46:37.290Z,57.04
2023-05-22T03:47:37.217Z,58.37
2023-05-22T03:48:37.138Z,60.00
2023-05-22T03:49:37.046Z,60.00
2023-05-22T03:50:37.032Z,59.72
2023-05-22T03:51:36.882Z,59.43
2023-05-22T03:52:36.818Z,59.81
2023-05-22T03:53:36.728Z,58.95
2023-05-22T03:54:36.662Z,59.05
2023-05-22T03:55:36.620Z,58.76
2023-05-22T03:56:36.498Z,59.23
2023-05-22T03:57:36.417Z,58.95
2023-05-22T03:58:36.349Z,58.28
2023-05-22T03:59:36.263Z,58.69
2023-05-22T04:00:36.187Z,60.41
2023-05-22T04:01:36.108Z,60.22
2023-05-22T04:02:36.064Z,59.23
2023-05-22T04:03:35.968Z,59.17
2023-05-22T04:04:35.885Z,59.27
2023-05-22T04:05:35.859Z,57.64
2023-05-22T04:06:35.705Z,57.61
2023-05-22T04:07:35.646Z,56.94
2023-05-22T04:08:35.554Z,57.16
2023-05-22T04:09:35.489Z,56.77
2023-05-22T04:10:35.397Z,57.61
2023-05-22T04:11:35.321Z,57.32
2023-05-22T04:12:35.250Z,57.80
2023-05-22T04:13:35.170Z,57.99
2023-05-22T04:14:35.096Z,57.90
2023-05-22T04:15:35.018Z,57.99
2023-05-22T04:16:34.934Z,56.65
2023-05-22T04:17:34.863Z,56.46
2023-05-22T04:18:34.777Z,55.69
2023-05-22T04:19:34.853Z,53.88
2023-05-22T04:20:34.610Z,53.78
2023-05-22T04:21:34.647Z,54.07
2023-05-22T04:22:34.446Z,55.51
2023-05-22T04:23:34.374Z,55.88
2023-05-22T04:24:34.301Z,56.65
2023-05-22T04:25:34.236Z,57.04
2023-05-22T04:26:34.143Z,57.04
2023-05-22T04:27:34.066Z,58.50
2023-05-22T04:28:33.980Z,56.10
2023-05-22T04:29:33.903Z,54.77
2023-05-22T04:30:33.906Z,54.19
2023-05-22T04:31:33.762Z,54.10
2023-05-22T04:32:33.694Z,57.16
2023-05-22T04:33:33.595Z,58.12
2023-05-22T04:34:33.517Z,58.12
2023-05-22T04:35:33.430Z,58.02
2023-05-22T04:36:33.353Z,58.31
2023-05-22T04:37:33.274Z,56.87
2023-05-22T04:38:33.202Z,58.22
2023-05-22T04:39:33.121Z,57.73
2023-05-22T04:40:33.039Z,57.45
2023-05-22T04:41:32.961Z,56.30
2023-05-22T04:42:32.888Z,57.54
2023-05-22T04:43:32.820Z,57.73
2023-05-22T04:44:32.728Z,57.73
2023-05-22T04:45:32.664Z,56.68
2023-05-22T04:46:32.597Z,56.97
2023-05-22T04:47:32.545Z,58.22
2023-05-22T04:48:32.418Z,58.59
2023-05-22T04:49:32.405Z,58.40
2023-05-22T04:50:32.267Z,59.94
2023-05-22T04:51:32.182Z,60.51
2023-05-22T04:52:32.107Z,58.98
2023-05-22T04:53:32.027Z,60.89
2023-05-22T04:54:31.950Z,61.76
2023-05-22T04:55:31.869Z,62.65
2023-05-22T04:56:36.962Z,62.65
2023-05-22T04:57:31.712Z,63.13
2023-05-22T04:58:31.636Z,64.47
2023-05-22T04:59:31.559Z,63.70
2023-05-22T05:00:31.476Z,63.32
2023-05-22T05:01:33.238Z,64.56
2023-05-22T05:02:31.388Z,65.23
2023-05-22T05:03:31.268Z,66.00
2023-05-22T05:04:31.173Z,65.14
2023-05-22T05:05:31.131Z,66.38
2023-05-22T05:06:31.020Z,67.54
2023-05-22T05:07:30.931Z,69.17
2023-05-22T05:08:30.850Z,70.06
2023-05-22T05:09:30.774Z,73.51
2023-05-22T05:10:30.699Z,74.08
2023-05-22T05:11:30.618Z,72.74
2023-05-22T05:12:30.536Z,72.27
2023-05-22T05:13:30.470Z,72.45
2023-05-22T05:14:30.398Z,73.90
2023-05-22T05:15:30.316Z,74.85
2023-05-22T05:16:30.279Z,77.06
2023-05-22T05:17:30.162Z,76.77
2023-05-22T05:18:30.076Z,77.15
2023-05-22T05:19:30.148Z,77.34
2023-05-22T05:20:29.914Z,75.52
2023-05-22T05:21:29.842Z,75.43
2023-05-22T05:22:29.764Z,76.00
2023-05-22T05:23:29.685Z,74.31
2023-05-22T05:24:29.614Z,75.85
2023-05-22T05:25:29.530Z,78.05
2023-05-22T05:26:29.459Z,78.53
2023-05-22T05:27:29.376Z,77.95
2023-05-22T05:28:29.299Z,77.48
2023-05-22T05:29:29.225Z,75.65
2023-05-22T05:30:29.174Z,78.25
2023-05-22T05:31:29.116Z,79.39
2023-05-22T05:32:29.025Z,80.64
2023-05-22T05:33:28.915Z,82.75
2023-05-22T05:34:28.832Z,82.94
2023-05-22T05:35:28.756Z,84.09
2023-05-22T05:36:28.676Z,83.23
2023-05-22T05:37:28.613Z,83.23
2023-05-22T05:38:28.523Z,82.08
2023-05-22T05:39:28.528Z,80.49
2023-05-22T05:40:28.522Z,81.64
2023-05-22T05:41:28.312Z,81.74
2023-05-22T05:42:28.218Z,82.51
2023-05-22T05:43:28.170Z,83.47
2023-05-22T05:44:28.062Z,85.10
2023-05-22T05:45:27.985Z,83.56
2023-05-22T05:46:27.978Z,84.23
2023-05-22T05:47:27.872Z,82.51
2023-05-22T05:48:27.762Z,83.27
2023-05-22T05:49:27.679Z,83.65
2023-05-22T05:50:27.601Z,82.21
2023-05-22T05:51:27.522Z,80.20
2023-05-22T05:52:27.453Z,82.51
2023-05-22T05:53:27.381Z,85.28
2023-05-22T05:54:27.303Z,84.85
2023-05-22T05:55:27.224Z,86.68
2023-05-22T05:56:27.140Z,86.19
2023-05-22T05:57:27.067Z,85.33
2023-05-22T05:58:26.981Z,86.87
2023-05-22T05:59:26.910Z,85.14
2023-05-22T06:00:26.831Z,86.10
2023-05-22T06:01:26.758Z,86.19
2023-05-22T06:02:26.849Z,86.48
2023-05-22T06:03:26.696Z,87.44
2023-05-22T06:04:26.526Z,88.64
2023-05-22T06:05:26.461Z,88.93
2023-05-22T06:06:26.419Z,89.12
2023-05-22T06:07:26.284Z,90.08
2023-05-22T06:08:26.220Z,90.37
2023-05-22T06:09:26.161Z,91.33
2023-05-22T06:10:26.066Z,90.75
2023-05-22T06:11:25.982Z,90.84
2023-05-22T06:12:25.929Z,89.31
2023-05-22T06:13:25.831Z,89.07
2023-05-22T06:14:25.776Z,90.12
2023-05-22T06:15:25.671Z,87.53
2023-05-22T06:16:25.625Z,87.77
2023-05-22T06:17:25.542Z,87.87
2023-05-22T06:18:25.450Z,88.01
2023-05-22T06:19:25.432Z,89.12
2023-05-22T06:20:25.329Z,85.61
2023-05-22T06:21:25.225Z,87.10
2023-05-22T06:22:25.142Z,88.87
2023-05-22T06:23:25.084Z,89.45
2023-05-22T06:24:25.009Z,88.39
2023-05-22T06:25:24.910Z,88.20
2023-05-22T06:26:24.833Z,88.87
2023-05-22T06:27:24.766Z,88.49
2023-05-22T06:28:24.706Z,89.36
2023-05-22T06:29:24.608Z,88.30
2023-05-22T06:30:43.267Z,87.72
2023-05-22T06:31:24.486Z,89.93
2023-05-22T06:32:24.468Z,90.51
2023-05-22T06:33:24.330Z,93.29
2023-05-22T06:34:24.298Z,94.35
2023-05-22T06:35:24.160Z,98.48
2023-05-22T06:36:24.076Z,99.54
2023-05-22T06:37:23.992Z,99.15
2023-05-22T06:38:23.921Z,99.73
2023-05-22T06:39:23.849Z,98.58
2023-05-22T06:40:23.784Z,98.29
2023-05-22T06:41:23.696Z,99.99
2023-05-22T06:42:23.614Z,99.99
2023-05-22T06:43:23.542Z,99.78
2023-05-22T06:44:23.461Z,96.90
2023-05-22T06:45:23.384Z,96.99
2023-05-22T06:46:25.676Z,97.47
2023-05-22T06:47:23.247Z,96.22
2023-05-22T06:48:23.167Z,97.19
2023-05-22T06:49:23.086Z,97.96
2023-05-22T06:50:23.004Z,97.09
2023-05-22T06:51:22.929Z,97.67
2023-05-22T06:52:22.845Z,97.28
2023-05-22T06:53:22.769Z,97.19
2023-05-22T06:54:22.721Z,96.17
2023-05-22T06:55:22.624Z,97.42
2023-05-22T06:56:22.555Z,98.39
2023-05-22T06:57:22.467Z,97.14
2023-05-22T06:58:22.397Z,97.14
2023-05-22T06:59:22.340Z,97.91
2023-05-22T07:00:22.266Z,98.29
2023-05-22T07:01:22.221Z,98.96
2023-05-22T07:02:22.117Z,99.06
2023-05-22T07:03:22.012Z,98.39
2023-05-22T07:04:21.932Z,99.11
2023-05-22T07:05:21.930Z,99.99
2023-05-22T07:06:21.828Z,99.99
2023-05-22T07:07:21.738Z,99.99
2023-05-22T07:08:21.627Z,99.99
2023-05-22T07:09:21.560Z,99.99
2023-05-22T07:10:21.483Z,99.99
2023-05-22T07:11:21.404Z,99.99
2023-05-22T07:12:21.328Z,99.99
2023-05-22T07:13:21.250Z,99.99
2023-05-22T07:14:21.178Z,99.99
2023-05-22T07:15:21.100Z,99.99
2023-05-22T07:16:21.054Z,99.99
2023-05-22T07:17:20.970Z,99.99
2023-05-22T07:18:20.890Z,99.99
2023-05-22T07:19:20.853Z,99.99
2023-05-22T07:20:20.731Z,99.99
2023-05-22T07:21:20.639Z,99.99
2023-05-22T07:22:20.566Z,99.99
2023-05-22T07:23:20.493Z,99.99
2023-05-22T07:24:20.453Z,99.99
2023-05-22T07:25:20.372Z,99.99
2023-05-22T07:26:20.276Z,99.99
2023-05-22T07:27:20.192Z,99.99
2023-05-22T07:28:20.111Z,99.99
2023-05-22T07:29:21.311Z,99.99
2023-05-22T07:30:19.975Z,99.99
2023-05-22T07:31:19.893Z,99.99
2023-05-22T07:32:19.828Z,99.99
2023-05-22T07:33:19.736Z,99.99
2023-05-22T07:34:19.655Z,99.99
2023-05-22T07:35:19.582Z,99.99
2023-05-22T07:36:19.505Z,99.99
2023-05-22T07:37:19.435Z,99.99
2023-05-22T07:38:19.370Z,99.99
2023-05-22T07:39:19.290Z,99.99
2023-05-22T07:40:19.207Z,99.99
2023-05-22T07:41:19.140Z,99.99
2023-05-22T07:42:19.055Z,99.99
2023-05-22T07:43:18.982Z,99.99
2023-05-22T07:44:18.902Z,99.99
2023-05-22T07:45:18.856Z,99.99
2023-05-22T07:46:18.825Z,99.99
2023-05-22T07:47:18.675Z,99.99
2023-05-22T07:48:18.645Z,99.99
2023-05-22T07:49:18.530Z,99.99
2023-05-22T07:50:18.458Z,99.99
2023-05-22T07:51:18.378Z,99.99
2023-05-22T07:52:18.335Z,99.99
2023-05-22T07:53:18.220Z,99.99
2023-05-22T07:54:18.162Z,99.99
2023-05-22T07:55:18.088Z,99.99
2023-05-22T07:56:18.010Z,99.99
2023-05-22T07:57:17.951Z,99.99
2023-05-22T07:58:17.849Z,99.99
2023-05-22T07:59:17.812Z,99.99
2023-05-22T08:00:17.687Z,99.99
2023-05-22T08:01:17.622Z,99.99
2023-05-22T08:02:17.576Z,99.99
2023-05-22T08:03:17.991Z,99.99
2023-05-22T08:04:17.539Z,99.99
2023-05-22T08:05:17.408Z,99.99
2023-05-22T08:06:17.291Z,99.99
2023-05-22T08:07:17.174Z,99.99
2023-05-22T08:08:17.101Z,99.99
2023-05-22T08:09:17.037Z,99.99
2023-05-22T08:10:16.951Z,99.99
2023-05-22T08:11:16.864Z,99.99
2023-05-22T08:12:16.831Z,99.99
2023-05-22T08:13:16.716Z,99.99
2023-05-22T08:14:16.660Z,99.99
2023-05-22T08:15:16.566Z,99.99
2023-05-22T08:16:16.515Z,99.99
2023-05-22T08:17:16.544Z,99.99
2023-05-22T08:18:16.356Z,99.99
2023-05-22T08:19:16.336Z,99.99
2023-05-22T08:20:16.327Z,99.99
2023-05-22T08:21:16.127Z,99.99
2023-05-22T08:22:16.056Z,99.99
2023-05-22T08:23:15.978Z,99.99
2023-05-22T08:24:15.898Z,99.99
2023-05-22T08:25:15.816Z,99.99
2023-05-22T08:26:15.742Z,99.99
2023-05-22T08:27:15.665Z,99.99
2023-05-22T08:28:15.596Z,99.99
2023-05-22T08:29:15.524Z,99.99
2023-05-22T08:30:15.454Z,99.99
2023-05-22T08:31:15.378Z,99.99
2023-05-22T08:32:15.310Z,99.99
2023-05-22T08:33:15.448Z,99.99
2023-05-22T08:34:15.146Z,99.99
2023-05-22T08:35:15.073Z,99.99
2023-05-22T08:36:14.994Z,99.99
2023-05-22T08:37:14.919Z,99.99
2023-05-22T08:38:14.842Z,99.99
2023-05-22T08:39:14.772Z,99.99
2023-05-22T08:40:14.698Z,99.99
2023-05-22T08:41:14.624Z,99.99
2023-05-22T08:42:14.562Z,99.99
2023-05-22T08:43:14.471Z,99.99
2023-05-22T08:44:14.398Z,99.99
2023-05-22T08:45:14.326Z,99.99
2023-05-22T08:46:14.246Z,99.99
2023-05-22T08:47:14.230Z,99.99
2023-05-22T08:48:14.111Z,99.99
2023-05-22T08:49:14.077Z,99.99
2023-05-22T08:50:13.954Z,99.99
2023-05-22T08:51:13.902Z,99.99
2023-05-22T08:52:13.804Z,99.99
2023-05-22T08:53:13.744Z,99.99
2023-05-22T08:54:13.652Z,99.99
2023-05-22T08:55:13.600Z,99.99
2023-05-22T08:56:13.499Z,99.99
2023-05-22T08:57:13.428Z,99.99
2023-05-22T08:58:13.367Z,99.99
2023-05-22T08:59:13.286Z,99.99
2023-05-22T09:00:13.203Z,99.99
2023-05-22T09:01:13.168Z,99.99
2023-05-22T09:02:13.054Z,99.99
2023-05-22T09:03:13.070Z,99.99
2023-05-22T09:04:12.950Z,99.99
2023-05-22T09:05:12.847Z,99.99
2023-05-22T09:06:12.760Z,99.99
2023-05-22T09:07:12.707Z,99.99
2023-05-22T09:08:20.454Z,99.99
2023-05-22T09:09:12.550Z,99.99
2023-05-22T09:10:12.471Z,99.99
2023-05-22T09:11:12.392Z,99.99
2023-05-22T09:12:12.319Z,99.99
2023-05-22T09:13:12.246Z,99.99
2023-05-22T09:14:12.168Z,99.99
2023-05-22T09:15:12.099Z,99.99
2023-05-22T09:16:12.033Z,99.94
2023-05-22T09:17:12.099Z,99.50
2023-05-22T09:18:11.899Z,98.49
2023-05-22T09:19:11.867Z,98.93
2023-05-22T09:20:11.742Z,99.21
2023-05-22T09:21:25.525Z,99.69
2023-05-22T09:22:11.585Z,99.21
2023-05-22T09:23:11.500Z,99.11
2023-05-22T09:24:11.441Z,99.99
2023-05-22T09:25:11.367Z,99.50
2023-05-22T09:26:11.284Z,98.44
2023-05-22T09:27:11.219Z,98.73
2023-05-22T09:28:11.138Z,97.96
2023-05-22T09:29:11.059Z,97.96
2023-05-22T09:30:10.999Z,97.86
2023-05-22T09:31:10.935Z,96.31
2023-05-22T09:32:10.837Z,96.89
2023-05-22T09:33:10.793Z,95.64
2023-05-22T09:34:10.691Z,95.64
2023-05-22T09:35:10.630Z,97.77
2023-05-22T09:36:10.549Z,98.25
2023-05-22T09:37:10.492Z,98.63
2023-05-22T09:38:12.038Z,96.61
2023-05-22T09:39:10.323Z,98.49
2023-05-22T09:40:10.256Z,98.30
2023-05-22T09:41:10.188Z,97.96
2023-05-22T09:42:10.119Z,96.84
2023-05-22T09:43:10.051Z,98.78
2023-05-22T09:44:09.956Z,97.72
2023-05-22T09:45:09.885Z,93.56
2023-05-22T09:46:09.877Z,90.17
2023-05-22T09:47:09.735Z,87.18
2023-05-22T09:48:09.662Z,86.11
2023-05-22T09:49:09.601Z,86.51
2023-05-22T09:50:09.518Z,85.15
2023-05-22T09:51:09.436Z,83.99
2023-05-22T09:52:09.363Z,85.73
2023-05-22T09:53:09.332Z,90.27
2023-05-22T09:54:09.219Z,88.82
2023-05-22T09:55:09.148Z,85.93
2023-05-22T09:56:09.064Z,87.76
2023-05-22T09:57:08.996Z,86.60
2023-05-22T09:58:08.924Z,86.79
2023-05-22T09:59:08.850Z,83.70
2023-05-22T10:00:08.781Z,83.12
2023-05-22T10:01:08.709Z,83.84
2023-05-22T10:02:08.713Z,83.45
2023-05-22T10:03:08.625Z,85.39
2023-05-22T10:04:08.517Z,84.13
2023-05-22T10:05:08.416Z,82.58
2023-05-22T10:06:08.333Z,80.74
2023-05-22T10:07:08.256Z,79.49
2023-05-22T10:08:08.194Z,76.78
2023-05-22T10:09:08.128Z,75.62
2023-05-22T10:10:08.049Z,74.07
2023-05-22T10:11:07.969Z,75.52
2023-05-22T10:12:07.952Z,75.95
2023-05-22T10:13:07.848Z,77.65
2023-05-22T10:14:07.753Z,79.62
2023-05-22T10:15:07.690Z,80.11
2023-05-22T10:16:07.770Z,79.14
2023-05-22T10:17:07.532Z,79.62
2023-05-22T10:18:07.500Z,78.46
2023-05-22T10:19:07.405Z,76.33
2023-05-22T10:20:07.306Z,78.46
2023-05-22T10:21:07.231Z,80.11
2023-05-22T10:22:07.158Z,80.59
2023-05-22T10:23:07.092Z,81.50
2023-05-22T10:24:07.017Z,81.12
2023-05-22T10:25:09.137Z,81.89
2023-05-22T10:26:06.872Z,80.24
2023-05-22T10:27:06.792Z,80.34
2023-05-22T10:28:06.723Z,81.02
2023-05-22T10:29:06.647Z,79.27
2023-05-22T10:30:06.583Z,78.89
2023-05-22T10:31:06.506Z,77.73
2023-05-22T10:32:06.429Z,80.77
2023-05-22T10:33:06.469Z,78.92
2023-05-22T10:34:06.298Z,81.21
2023-05-22T10:35:06.216Z,77.09
2023-05-22T10:36:06.164Z,76.99
2023-05-22T10:37:16.618Z,77.47
2023-05-22T10:38:05.993Z,74.66
2023-05-22T10:39:05.913Z,74.57
2023-05-22T10:40:05.863Z,73.99
2023-05-22T10:41:05.873Z,72.63
2023-05-22T10:42:05.703Z,70.98
2023-05-22T10:43:05.631Z,71.80
2023-05-22T10:44:05.550Z,72.18
2023-05-22T10:45:05.489Z,69.95
2023-05-22T10:46:05.460Z,70.11
2023-05-22T10:47:05.339Z,70.98
2023-05-22T10:48:05.302Z,71.99
2023-05-22T10:49:05.194Z,72.86
2023-05-22T10:50:05.124Z,71.60
2023-05-22T10:51:05.047Z,71.31
2023-05-22T10:52:04.976Z,74.02
2023-05-22T10:53:04.907Z,74.41
2023-05-22T10:54:04.828Z,74.80
2023-05-22T10:55:04.777Z,75.51
2023-05-22T10:56:04.683Z,74.16
2023-05-22T10:57:04.718Z,71.83
2023-05-22T10:58:05.021Z,71.34
2023-05-22T10:59:04.478Z,72.22
2023-05-22T11:00:04.477Z,74.06
2023-05-22T11:01:04.335Z,72.31
2023-05-22T11:02:04.295Z,73.13
2023-05-22T11:03:17.069Z,72.41
2023-05-22T11:04:04.124Z,69.54
2023-05-22T11:05:04.142Z,70.41
2023-05-22T11:06:03.991Z,70.61
2023-05-22T11:07:03.897Z,68.57
2023-05-22T11:08:03.832Z,68.86
2023-05-22T11:09:03.751Z,68.66
2023-05-22T11:10:03.682Z,68.18
2023-05-22T11:11:03.613Z,68.89
2023-05-22T11:12:03.537Z,69.86
2023-05-22T11:13:03.560Z,67.05
2023-05-22T11:14:03.393Z,64.82
2023-05-22T11:15:03.314Z,67.92
2023-05-22T11:16:03.244Z,62.10
2023-05-22T11:17:03.196Z,60.84
2023-05-22T11:18:03.113Z,61.32
2023-05-22T11:19:18.522Z,62.29
2023-05-22T11:20:03.243Z,62.42
2023-05-22T11:21:02.884Z,60.97
2023-05-22T11:22:02.812Z,59.80
2023-05-22T11:23:02.739Z,55.99
2023-05-22T11:24:02.666Z,54.72
2023-05-22T11:25:02.607Z,56.40
2023-05-22T11:26:02.526Z,58.05
2023-05-22T11:27:02.454Z,57.96
2023-05-22T11:28:02.381Z,59.51
2023-05-22T11:29:02.455Z,58.73
2023-05-22T11:30:02.258Z,57.08
2023-05-22T11:31:02.205Z,56.70
2023-05-22T11:32:02.154Z,56.01
2023-05-22T11:33:03.174Z,56.70
2023-05-22T11:34:01.965Z,56.60
2023-05-22T11:35:01.894Z,55.82
2023-05-22T11:36:01.816Z,55.85
2023-05-22T11:37:01.754Z,56.72
2023-05-22T11:38:01.670Z,54.97
2023-05-22T11:39:01.598Z,52.84
2023-05-22T11:40:01.550Z,51.87
2023-05-22T11:41:01.478Z,53.32
2023-05-22T11:42:01.389Z,56.36
2023-05-22T11:43:01.322Z,55.98
2023-05-22T11:44:01.250Z,55.68
2023-05-22T11:45:01.268Z,56.26
2023-05-22T11:46:01.115Z,55.78
2023-05-22T11:47:01.033Z,55.98
2023-05-22T11:48:00.984Z,54.71
2023-05-22T11:49:00.889Z,55.29
2023-05-22T11:50:00.835Z,56.16
2023-05-22T11:51:00.740Z,57.14
2023-05-22T11:52:00.681Z,56.95
2023-05-22T11:53:00.600Z,57.53
2023-05-22T11:54:00.535Z,57.07
2023-05-22T11:55:00.460Z,58.33
2023-05-22T11:56:00.388Z,59.41
2023-05-22T11:57:00.327Z,55.90
2023-05-22T11:58:00.247Z,55.22
2023-05-22T11:59:00.196Z,57.07
2023-05-22T12:00:00.163Z,56.49
2023-05-22T12:01:00.146Z,56.20
2023-05-22T12:01:59.975Z,57.07
2023-05-22T12:03:00.042Z,56.39
2023-05-22T12:03:59.875Z,55.74
2023-05-22T12:04:59.765Z,55.35
2023-05-22T12:05:59.689Z,55.44
2023-05-22T12:06:59.660Z,57.39
2023-05-22T12:07:59.534Z,58.56
2023-05-22T12:08:59.466Z,58.56
2023-05-22T12:09:59.396Z,56.71
2023-05-22T12:10:59.318Z,56.15
2023-05-22T12:11:59.259Z,55.66
2023-05-22T12:12:59.197Z,56.45
2023-05-22T12:13:59.121Z,56.22
2023-05-22T12:14:59.039Z,55.96
2023-05-22T12:15:59.010Z,56.74
2023-05-22T12:16:59.083Z,55.37
2023-05-22T12:17:58.892Z,56.35
2023-05-22T12:18:58.824Z,56.05
2023-05-22T12:19:58.686Z,55.01
2023-05-22T12:20:58.617Z,54.72
2023-05-22T12:21:58.551Z,55.50
2023-05-22T12:22:58.476Z,53.14
2023-05-22T12:23:58.409Z,52.38
2023-05-22T12:24:58.358Z,52.38
2023-05-22T12:25:58.268Z,51.51
2023-05-22T12:26:58.196Z,50.73
2023-05-22T12:27:58.137Z,50.63
2023-05-22T12:28:58.065Z,50.82
2023-05-22T12:29:58.023Z,52.87
2023-05-22T12:30:57.925Z,53.94
2023-05-22T12:31:57.907Z,53.87
2023-05-22T12:32:57.935Z,51.73
2023-05-22T12:33:57.715Z,51.24
2023-05-22T12:34:57.650Z,53.09
2023-05-22T12:35:57.606Z,53.87
2023-05-22T12:36:57.509Z,53.58
2023-05-22T12:37:57.428Z,53.50
2023-05-22T12:38:57.400Z,52.63
2023-05-22T12:39:57.288Z,52.34
2023-05-22T12:40:57.219Z,50.78
2023-05-22T12:41:57.156Z,48.05
2023-05-22T12:42:57.089Z,50.78
2023-05-22T12:43:57.019Z,51.46
2023-05-22T12:44:56.970Z,54.90
2023-05-22T12:45:56.910Z,50.60
2023-05-22T12:46:56.807Z,51.09
2023-05-22T12:47:56.744Z,49.37
2023-05-22T12:48:56.764Z,48.49
2023-05-22T12:49:56.645Z,48.49
2023-05-22T12:50:56.524Z,51.51
2023-05-22T12:51:56.470Z,49.76